KHLG/HLG METAR and TAF weather

Enter ICAO airport designator
Station Type Date Time Source
KHLG METAR 2018/12/11 17:53 UTC NOAA

KHLG 111753Z 22013G19KT 10SM CLR M01/M07 A3005 RMK AO2 SLP195 T10061072 10000 21056 58030


Station Type Date Time Source
KHLG Decoded METAR 2018/12/11 17:53 UTC NOAA

WHEELING OHIO COUNTY AIRPORT, WV, United States (KHLG) 40-10N 080-39W 372M
Dec 11, 2018 - 12:53 PM EST / 2018.12.11 1753 UTC
Wind: from the SW (220 degrees) at 15 MPH (13 KT) gusting to 22 MPH (19 KT):0
Visibility: 10 mile(s):0
Sky conditions: clear
Temperature: 30.9 F (-0.6 C)
Windchill: 19 F (-7 C):1
Dew Point: 19.0 F (-7.2 C)
Relative Humidity: 60%
Pressure (altimeter): 30.05 in. Hg (1017 hPa)
Pressure tendency: 0.09 inches (3.0 hPa) lower than three hours ago
ob: KHLG 111753Z 22013G19KT 10SM CLR M01/M07 A3005 RMK AO2 SLP195 T10061072 10000 21056 58030
cycle: 18

Station Type Date Time Source
KHLG TAF 2018/12/11 18:22 UTC NOAA

TAF KHLG 111720Z 1118/1218 23010G18KT P6SM SCT015
FM120300 23008KT P6SM BKN020
FM121200 18004KT P6SM SCT250


Example: see airport list